sensor_id;sensor_type;location;lat;lon;timestamp;pressure;altitude;pressure_sealevel;temperature;humidity
7832;BME280;3961;42.058;25.586;2023-02-03T00:00:26;62763.00;;;4.91;93.11
7832;BME280;3961;42.058;25.586;2023-02-03T00:02:53;62730.63;;;4.60;95.12
7832;BME280;3961;42.058;25.586;2023-02-03T00:05:19;62758.63;;;4.90;95.14
7832;BME280;3961;42.058;25.586;2023-02-03T00:07:45;62728.00;;;4.60;96.68
7832;BME280;3961;42.058;25.586;2023-02-03T00:10:11;62751.53;;;4.81;95.19
7832;BME280;3961;42.058;25.586;2023-02-03T00:12:36;62682.16;;;4.20;98.90
7832;BME280;3961;42.058;25.586;2023-02-03T00:15:02;62673.63;;;4.08;100.00
7832;BME280;3961;42.058;25.586;2023-02-03T00:17:27;62680.75;;;4.16;100.00
7832;BME280;3961;42.058;25.586;2023-02-03T00:19:53;62695.31;;;4.31;100.00
7832;BME280;3961;42.058;25.586;2023-02-03T00:22:19;62700.00;;;4.31;99.86
7832;BME280;3961;42.058;25.586;2023-02-03T00:24:44;62707.38;;;4.42;100.00
7832;BME280;3961;42.058;25.586;2023-02-03T00:27:10;62697.63;;;4.33;100.00
7832;BME280;3961;42.058;25.586;2023-02-03T00:29:35;62696.78;;;4.30;100.00
7832;BME280;3961;42.058;25.586;2023-02-03T00:32:01;62680.66;;;4.21;100.00
7832;BME280;3961;42.058;25.586;2023-02-03T00:34:28;62664.38;;;4.04;100.00
7832;BME280;3961;42.058;25.586;2023-02-03T00:36:54;62688.44;;;4.25;100.00
7832;BME280;3961;42.058;25.586;2023-02-03T00:39:20;62675.50;;;4.16;100.00
7832;BME280;3961;42.058;25.586;2023-02-03T00:41:46;62628.84;;;3.72;100.00
7832;BME280;3961;42.058;25.586;2023-02-03T00:44:13;62655.53;;;3.94;100.00
7832;BME280;3961;42.058;25.586;2023-02-03T00:46:38;62652.66;;;3.91;100.00
7832;BME280;3961;42.058;25.586;2023-02-03T00:49:04;62656.00;;;3.99;100.00
7832;BME280;3961;42.058;25.586;2023-02-03T00:51:30;62672.31;;;4.16;99.48
7832;BME280;3961;42.058;25.586;2023-02-03T00:53:56;62684.34;;;4.26;97.11
7832;BME280;3961;42.058;25.586;2023-02-03T00:56:22;62685.81;;;4.25;95.90
7832;BME280;3961;42.058;25.586;2023-02-03T00:58:47;62697.63;;;4.33;95.52
7832;BME280;3961;42.058;25.586;2023-02-03T01:01:13;62690.97;;;4.30;96.08
7832;BME280;3961;42.058;25.586;2023-02-03T01:03:38;62712.53;;;4.47;94.44
7832;BME280;3961;42.058;25.586;2023-02-03T01:06:13;62691.53;;;4.30;95.43
7832;BME280;3961;42.058;25.586;2023-02-03T01:08:39;62681.00;;;4.19;96.53
7832;BME280;3961;42.058;25.586;2023-02-03T01:11:09;62640.78;;;3.88;96.57
7832;BME280;3961;42.058;25.586;2023-02-03T01:13:35;62685.81;;;4.25;96.16
7832;BME280;3961;42.058;25.586;2023-02-03T01:16:02;62615.66;;;3.61;97.55
7832;BME280;3961;42.058;25.586;2023-02-03T01:18:28;62634.00;;;3.77;99.15
7832;BME280;3961;42.058;25.586;2023-02-03T01:20:53;62632.03;;;3.73;100.00
7832;BME280;3961;42.058;25.586;2023-02-03T01:23:19;62627.38;;;3.74;98.83
7832;BME280;3961;42.058;25.586;2023-02-03T01:25:44;62627.69;;;3.71;97.39
7832;BME280;3961;42.058;25.586;2023-02-03T01:28:10;62617.03;;;3.64;98.27
7832;BME280;3961;42.058;25.586;2023-02-03T01:30:36;62648.88;;;3.90;95.79
7832;BME280;3961;42.058;25.586;2023-02-03T01:33:01;62652.56;;;3.96;95.14
7832;BME280;3961;42.058;25.586;2023-02-03T01:35:27;62673.78;;;4.15;92.86
7832;BME280;3961;42.058;25.586;2023-02-03T01:37:52;62674.44;;;4.11;93.11
7832;BME280;3961;42.058;25.586;2023-02-03T01:40:18;62619.66;;;3.64;93.87
7832;BME280;3961;42.058;25.586;2023-02-03T01:42:43;62671.59;;;4.08;93.72
7832;BME280;3961;42.058;25.586;2023-02-03T01:45:10;62658.06;;;3.98;94.59
7832;BME280;3961;42.058;25.586;2023-02-03T01:47:41;62604.53;;;3.49;98.00
7832;BME280;3961;42.058;25.586;2023-02-03T01:50:18;62613.03;;;3.61;98.54
7832;BME280;3961;42.058;25.586;2023-02-03T01:52:52;62634.00;;;3.77;97.80
7832;BME280;3961;42.058;25.586;2023-02-03T01:55:26;62627.13;;;3.71;97.36
7832;BME280;3961;42.058;25.586;2023-02-03T01:58:01;62623.34;;;3.70;96.87
7832;BME280;3961;42.058;25.586;2023-02-03T02:00:29;62636.88;;;3.80;97.51
7832;BME280;3961;42.058;25.586;2023-02-03T02:02:58;62656.66;;;3.95;96.38
7832;BME280;3961;42.058;25.586;2023-02-03T02:05:31;62660.59;;;4.03;95.04
7832;BME280;3961;42.058;25.586;2023-02-03T02:07:59;62663.78;;;4.03;94.99
7832;BME280;3961;42.058;25.586;2023-02-03T02:10:28;62673.63;;;4.08;94.79
7832;BME280;3961;42.058;25.586;2023-02-03T02:12:57;62680.66;;;4.21;94.35
7832;BME280;3961;42.058;25.586;2023-02-03T02:21:58;62696.22;;;4.30;94.64
7832;BME280;3961;42.058;25.586;2023-02-03T02:40:49;62695.00;;;4.33;92.96
7832;BME280;3961;42.058;25.586;2023-02-03T02:46:45;62692.69;;;4.31;93.31
7832;BME280;3961;42.058;25.586;2023-02-03T02:49:21;62703.34;;;4.38;93.47
7832;BME280;3961;42.058;25.586;2023-02-03T02:51:49;62690.06;;;4.31;93.89
7832;BME280;3961;42.058;25.586;2023-02-03T02:54:23;62701.63;;;4.37;93.44
7832;BME280;3961;42.058;25.586;2023-02-03T02:56:53;62701.31;;;4.39;94.40
7832;BME280;3961;42.058;25.586;2023-02-03T02:59:20;62697.03;;;4.33;94.86
7832;BME280;3961;42.058;25.586;2023-02-03T03:01:46;62704.16;;;4.42;94.56
7832;BME280;3961;42.058;25.586;2023-02-03T03:04:14;62694.50;;;4.28;95.39
7832;BME280;3961;42.058;25.586;2023-02-03T03:06:47;62702.19;;;4.37;95.48
7832;BME280;3961;42.058;25.586;2023-02-03T03:09:18;62681.47;;;4.24;94.41
7832;BME280;3961;42.058;25.586;2023-02-03T03:11:59;62694.41;;;4.33;94.72
7832;BME280;3961;42.058;25.586;2023-02-03T03:14:29;62699.56;;;4.37;95.07
7832;BME280;3961;42.058;25.586;2023-02-03T03:16:59;62710.56;;;4.43;94.25
7832;BME280;3961;42.058;25.586;2023-02-03T03:19:54;62695.00;;;4.33;96.08
7832;BME280;3961;42.058;25.586;2023-02-03T03:22:24;62685.81;;;4.25;95.46
7832;BME280;3961;42.058;25.586;2023-02-03T03:25:05;62693.03;;;4.29;94.55
7832;BME280;3961;42.058;25.586;2023-02-03T03:27:38;62665.28;;;4.02;94.82
7832;BME280;3961;42.058;25.586;2023-02-03T03:30:15;62693.34;;;4.27;96.30
7832;BME280;3961;42.058;25.586;2023-02-03T03:32:42;62701.31;;;4.39;95.44
7832;BME280;3961;42.058;25.586;2023-02-03T03:35:08;62699.56;;;4.37;96.14
7832;BME280;3961;42.058;25.586;2023-02-03T03:37:43;62697.03;;;4.33;96.00
7832;BME280;3961;42.058;25.586;2023-02-03T03:40:21;62712.84;;;4.45;96.12
7832;BME280;3961;42.058;25.586;2023-02-03T03:42:59;62721.72;;;4.55;95.74
7832;BME280;3961;42.058;25.586;2023-02-03T03:45:37;62732.03;;;4.64;95.85
7832;BME280;3961;42.058;25.586;2023-02-03T03:48:29;62689.25;;;4.28;96.12
7832;BME280;3961;42.058;25.586;2023-02-03T03:51:06;62663.56;;;4.01;96.75
7832;BME280;3961;42.058;25.586;2023-02-03T03:53:37;62685.25;;;4.25;97.65
7832;BME280;3961;42.058;25.586;2023-02-03T03:56:05;62679.75;;;4.22;97.97
7832;BME280;3961;42.058;25.586;2023-02-03T03:58:33;62690.72;;;4.27;97.92
7832;BME280;3961;42.058;25.586;2023-02-03T04:01:02;62682.16;;;4.20;97.99
7832;BME280;3961;42.058;25.586;2023-02-03T04:03:37;62666.66;;;4.06;98.46
7832;BME280;3961;42.058;25.586;2023-02-03T04:06:04;62671.75;;;4.15;99.12
7832;BME280;3961;42.058;25.586;2023-02-03T04:08:30;62653.97;;;3.99;99.08
7832;BME280;3961;42.058;25.586;2023-02-03T04:10:56;62663.72;;;4.08;99.74
7832;BME280;3961;42.058;25.586;2023-02-03T04:13:21;62648.34;;;3.90;100.00
7832;BME280;3961;42.058;25.586;2023-02-03T04:15:47;62648.34;;;3.90;100.00
7832;BME280;3961;42.058;25.586;2023-02-03T04:18:13;62627.13;;;3.71;100.00
7832;BME280;3961;42.058;25.586;2023-02-03T04:20:39;62658.06;;;3.98;100.00
7832;BME280;3961;42.058;25.586;2023-02-03T04:23:06;62658.06;;;3.98;100.00
7832;BME280;3961;42.058;25.586;2023-02-03T04:25:32;62685.56;;;4.23;100.00
7832;BME280;3961;42.058;25.586;2023-02-03T04:27:58;62690.81;;;4.23;100.00
7832;BME280;3961;42.058;25.586;2023-02-03T04:30:23;62689.00;;;4.26;100.00
7832;BME280;3961;42.058;25.586;2023-02-03T04:32:49;62692.44;;;4.29;100.00
7832;BME280;3961;42.058;25.586;2023-02-03T04:35:15;62700.16;;;4.38;99.17
7832;BME280;3961;42.058;25.586;2023-02-03T04:37:40;62688.09;;;4.27;98.84
7832;BME280;3961;42.058;25.586;2023-02-03T04:40:07;62688.44;;;4.25;99.20
7832;BME280;3961;42.058;25.586;2023-02-03T04:42:32;62691.88;;;4.28;99.20
7832;BME280;3961;42.058;25.586;2023-02-03T04:45:00;62685.25;;;4.25;99.17
7832;BME280;3961;42.058;25.586;2023-02-03T04:47:26;62713.69;;;4.48;99.04
7832;BME280;3961;42.058;25.586;2023-02-03T04:49:51;62730.63;;;4.60;97.72
7832;BME280;3961;42.058;25.586;2023-02-03T04:52:17;62738.66;;;4.67;97.46
7832;BME280;3961;42.058;25.586;2023-02-03T04:54:42;62742.69;;;4.71;96.77
7832;BME280;3961;42.058;25.586;2023-02-03T04:57:08;62744.66;;;4.75;96.00
7832;BME280;3961;42.058;25.586;2023-02-03T04:59:33;62708.50;;;4.43;98.30
7832;BME280;3961;42.058;25.586;2023-02-03T05:02:01;62713.69;;;4.48;97.72
7832;BME280;3961;42.058;25.586;2023-02-03T05:04:28;62715.41;;;4.49;97.71
7832;BME280;3961;42.058;25.586;2023-02-03T05:06:53;62721.34;;;4.57;98.05
7832;BME280;3961;42.058;25.586;2023-02-03T05:09:20;62722.25;;;4.55;96.59
7832;BME280;3961;42.058;25.586;2023-02-03T05:11:46;62752.69;;;4.82;96.23
7832;BME280;3961;42.058;25.586;2023-02-03T05:14:12;62750.13;;;4.78;95.12
7832;BME280;3961;42.058;25.586;2023-02-03T05:16:38;62752.09;;;4.82;95.87
7832;BME280;3961;42.058;25.586;2023-02-03T05:19:03;62751.78;;;4.84;94.92
7832;BME280;3961;42.058;25.586;2023-02-03T05:21:29;62767.00;;;4.95;94.55
7832;BME280;3961;42.058;25.586;2023-02-03T05:23:54;62775.03;;;5.02;93.36
7832;BME280;3961;42.058;25.586;2023-02-03T05:26:20;62770.44;;;4.98;91.82
7832;BME280;3961;42.058;25.586;2023-02-03T05:28:46;62777.09;;;5.01;93.33
7832;BME280;3961;42.058;25.586;2023-02-03T05:31:11;62772.19;;;4.99;92.96
7832;BME280;3961;42.058;25.586;2023-02-03T05:33:37;62777.00;;;5.06;93.09
7832;BME280;3961;42.058;25.586;2023-02-03T05:36:03;62775.38;;;5.00;92.30
7832;BME280;3961;42.058;25.586;2023-02-03T05:38:28;62771.59;;;4.99;92.75
7832;BME280;3961;42.058;25.586;2023-02-03T05:40:54;62748.34;;;4.81;93.59
7832;BME280;3961;42.058;25.586;2023-02-03T05:43:38;62749.47;;;4.82;93.86
7832;BME280;3961;42.058;25.586;2023-02-03T05:46:05;62745.22;;;4.76;94.52
7832;BME280;3961;42.058;25.586;2023-02-03T05:48:32;62750.97;;;4.81;93.45
7832;BME280;3961;42.058;25.586;2023-02-03T05:50:57;62750.72;;;4.78;94.26
7832;BME280;3961;42.058;25.586;2023-02-03T05:53:23;62762.09;;;4.93;94.40
7832;BME280;3961;42.058;25.586;2023-02-03T05:55:49;62770.13;;;5.00;92.64
7832;BME280;3961;42.058;25.586;2023-02-03T05:58:15;62777.34;;;5.04;92.70
7832;BME280;3961;42.058;25.586;2023-02-03T06:00:40;62771.59;;;4.99;93.06
7832;BME280;3961;42.058;25.586;2023-02-03T06:03:06;62785.06;;;5.13;93.15
7832;BME280;3961;42.058;25.586;2023-02-03T06:05:33;62780.22;;;5.06;92.38
7832;BME280;3961;42.058;25.586;2023-02-03T06:07:59;62796.38;;;5.16;91.91
7832;BME280;3961;42.058;25.586;2023-02-03T06:10:25;62774.13;;;5.03;91.18
7832;BME280;3961;42.058;25.586;2023-02-03T06:12:51;62770.78;;;4.96;91.02
7832;BME280;3961;42.058;25.586;2023-02-03T06:15:17;62732.59;;;4.64;93.35
7832;BME280;3961;42.058;25.586;2023-02-03T06:17:44;62764.13;;;4.92;92.04
7832;BME280;3961;42.058;25.586;2023-02-03T06:20:11;62757.50;;;4.89;91.94
7832;BME280;3961;42.058;25.586;2023-02-03T06:22:37;62779.31;;;5.08;91.38
7832;BME280;3961;42.058;25.586;2023-02-03T06:25:03;62785.13;;;5.09;91.47
7832;BME280;3961;42.058;25.586;2023-02-03T06:27:28;62785.38;;;5.11;90.71
7832;BME280;3961;42.058;25.586;2023-02-03T06:29:54;62786.19;;;5.14;90.78
7832;BME280;3961;42.058;25.586;2023-02-03T06:32:19;62792.97;;;5.25;91.57
7832;BME280;3961;42.058;25.586;2023-02-03T06:34:45;62803.72;;;5.27;90.79
7832;BME280;3961;42.058;25.586;2023-02-03T06:37:11;62806.59;;;5.30;90.11
7832;BME280;3961;42.058;25.586;2023-02-03T06:39:36;62799.47;;;5.21;89.00
7832;BME280;3961;42.058;25.586;2023-02-03T06:42:02;62779.41;;;5.03;90.23
7832;BME280;3961;42.058;25.586;2023-02-03T06:44:28;62790.78;;;5.18;90.74
7832;BME280;3961;42.058;25.586;2023-02-03T06:46:53;62789.97;;;5.15;92.11
7832;BME280;3961;42.058;25.586;2023-02-03T06:49:20;62776.78;;;5.03;92.49
7832;BME280;3961;42.058;25.586;2023-02-03T06:51:46;62773.00;;;5.02;91.86
7832;BME280;3961;42.058;25.586;2023-02-03T06:54:12;62781.59;;;5.10;94.02
7832;BME280;3961;42.058;25.586;2023-02-03T06:56:38;62789.66;;;5.17;92.61
7832;BME280;3961;42.058;25.586;2023-02-03T06:59:04;62787.69;;;5.13;92.40
7832;BME280;3961;42.058;25.586;2023-02-03T07:01:30;62773.56;;;5.03;93.13
7832;BME280;3961;42.058;25.586;2023-02-03T07:03:56;62722.75;;;4.60;95.25
7832;BME280;3961;42.058;25.586;2023-02-03T07:06:26;62790.31;;;5.13;95.28
7832;BME280;3961;42.058;25.586;2023-02-03T07:08:55;62787.44;;;5.11;93.90
7832;BME280;3961;42.058;25.586;2023-02-03T07:11:20;62759.78;;;4.91;94.80
7832;BME280;3961;42.058;25.586;2023-02-03T07:13:46;62788.59;;;5.12;93.50
7832;BME280;3961;42.058;25.586;2023-02-03T07:16:12;62785.97;;;5.12;93.13
7832;BME280;3961;42.058;25.586;2023-02-03T07:18:38;63117.91;;;8.07;92.61
7832;BME280;3961;42.058;25.586;2023-02-03T07:21:05;63075.06;;;7.67;79.02
7832;BME280;3961;42.058;25.586;2023-02-03T07:23:30;63006.00;;;7.06;79.65
7832;BME280;3961;42.058;25.586;2023-02-03T07:26:00;62945.97;;;6.51;83.58
7832;BME280;3961;42.058;25.586;2023-02-03T07:28:27;62911.38;;;6.25;83.69
7832;BME280;3961;42.058;25.586;2023-02-03T07:30:52;62903.13;;;6.15;83.64
7832;BME280;3961;42.058;25.586;2023-02-03T07:33:18;62894.16;;;6.10;85.77
7832;BME280;3961;42.058;25.586;2023-02-03T07:35:51;62905.63;;;6.20;85.54
7832;BME280;3961;42.058;25.586;2023-02-03T07:38:16;62899.91;;;6.15;87.06
7832;BME280;3961;42.058;25.586;2023-02-03T07:40:42;62896.22;;;6.09;86.37
7832;BME280;3961;42.058;25.586;2023-02-03T07:43:07;62875.19;;;5.93;85.58
7832;BME280;3961;42.058;25.586;2023-02-03T07:45:33;62887.69;;;5.97;85.70
7832;BME280;3961;42.058;25.586;2023-02-03T07:47:58;62887.84;;;6.04;85.22
7832;BME280;3961;42.058;25.586;2023-02-03T07:50:24;63021.53;;;7.20;91.87
7832;BME280;3961;42.058;25.586;2023-02-03T07:52:50;63235.81;;;9.08;81.10
7832;BME280;3961;42.058;25.586;2023-02-03T07:55:16;63356.00;;;10.17;67.25
7832;BME280;3961;42.058;25.586;2023-02-03T07:57:42;63251.59;;;9.25;68.12
7832;BME280;3961;42.058;25.586;2023-02-03T08:00:10;63134.00;;;8.21;73.06
7832;BME280;3961;42.058;25.586;2023-02-03T08:02:36;63085.09;;;7.78;75.03
7832;BME280;3961;42.058;25.586;2023-02-03T08:05:02;63086.56;;;7.77;75.16
7832;BME280;3961;42.058;25.586;2023-02-03T08:07:27;63109.59;;;7.97;75.70
7832;BME280;3961;42.058;25.586;2023-02-03T08:09:52;63159.41;;;8.44;74.30
7832;BME280;3961;42.058;25.586;2023-02-03T08:12:18;63230.28;;;9.06;70.79
7832;BME280;3961;42.058;25.586;2023-02-03T08:14:44;63306.41;;;9.73;71.36
7832;BME280;3961;42.058;25.586;2023-02-03T08:17:09;63291.16;;;9.57;70.50
7832;BME280;3961;42.058;25.586;2023-02-03T08:19:35;63338.81;;;9.97;67.43
7832;BME280;3961;42.058;25.586;2023-02-03T08:22:00;63348.84;;;10.08;64.94
7832;BME280;3961;42.058;25.586;2023-02-03T08:24:25;63284.81;;;9.52;66.56
7832;BME280;3961;42.058;25.586;2023-02-03T08:26:51;63311.00;;;9.77;67.47
7832;BME280;3961;42.058;25.586;2023-02-03T08:29:17;63449.34;;;10.96;67.71
7832;BME280;3961;42.058;25.586;2023-02-03T08:31:43;63571.00;;;12.05;62.71
7832;BME280;3961;42.058;25.586;2023-02-03T08:34:08;63428.88;;;10.76;60.32
7832;BME280;3961;42.058;25.586;2023-02-03T08:36:34;63362.72;;;10.20;64.23
7832;BME280;3961;42.058;25.586;2023-02-03T08:39:03;63301.88;;;9.64;64.39
7832;BME280;3961;42.058;25.586;2023-02-03T08:41:29;63235.22;;;9.08;66.86
7832;BME280;3961;42.058;25.586;2023-02-03T08:43:54;63235.00;;;9.05;66.66
7832;BME280;3961;42.058;25.586;2023-02-03T08:46:20;63205.22;;;8.82;67.85
7832;BME280;3961;42.058;25.586;2023-02-03T08:48:46;63205.91;;;8.77;69.40
7832;BME280;3961;42.058;25.586;2023-02-03T08:51:14;63213.31;;;8.89;69.31
7832;BME280;3961;42.058;25.586;2023-02-03T08:53:40;63215.63;;;8.91;67.74
7832;BME280;3961;42.058;25.586;2023-02-03T08:56:07;63227.16;;;9.01;68.04
7832;BME280;3961;42.058;25.586;2023-02-03T08:58:33;63232.69;;;9.03;67.80
7832;BME280;3961;42.058;25.586;2023-02-03T09:01:13;63245.59;;;9.17;68.33
7832;BME280;3961;42.058;25.586;2023-02-03T09:03:39;63279.84;;;9.50;65.91
7832;BME280;3961;42.058;25.586;2023-02-03T09:06:05;63329.00;;;9.88;67.38
7832;BME280;3961;42.058;25.586;2023-02-03T09:08:32;63308.47;;;9.72;67.08
7832;BME280;3961;42.058;25.586;2023-02-03T09:10:58;63341.13;;;9.99;65.54
7832;BME280;3961;42.058;25.586;2023-02-03T09:13:23;63402.91;;;10.53;63.43
7832;BME280;3961;42.058;25.586;2023-02-03T09:15:49;63429.94;;;10.82;61.82
7832;BME280;3961;42.058;25.586;2023-02-03T09:18:15;63481.38;;;11.27;59.38
7832;BME280;3961;42.058;25.586;2023-02-03T09:20:40;63453.97;;;11.00;59.56
7832;BME280;3961;42.058;25.586;2023-02-03T09:23:06;63456.41;;;10.98;56.63
7832;BME280;3961;42.058;25.586;2023-02-03T09:25:32;63429.47;;;10.76;55.52
7832;BME280;3961;42.058;25.586;2023-02-03T09:28:00;63422.19;;;10.72;58.12
7832;BME280;3961;42.058;25.586;2023-02-03T09:30:26;63436.97;;;10.83;55.93
7832;BME280;3961;42.058;25.586;2023-02-03T09:32:52;63481.13;;;11.24;58.01
7832;BME280;3961;42.058;25.586;2023-02-03T09:35:19;63456.63;;;11.00;57.84
7832;BME280;3961;42.058;25.586;2023-02-03T09:37:45;63423.47;;;10.69;57.53
7832;BME280;3961;42.058;25.586;2023-02-03T09:40:19;63359.56;;;10.15;58.32
7832;BME280;3961;42.058;25.586;2023-02-03T09:43:03;63349.06;;;10.10;57.73
7832;BME280;3961;42.058;25.586;2023-02-03T09:45:32;63421.63;;;10.72;55.96
7832;BME280;3961;42.058;25.586;2023-02-03T09:48:12;63347.47;;;10.04;56.92
7832;BME280;3961;42.058;25.586;2023-02-03T09:50:39;63359.81;;;10.18;54.94
7832;BME280;3961;42.058;25.586;2023-02-03T09:53:31;63351.72;;;10.10;55.67
7832;BME280;3961;42.058;25.586;2023-02-03T09:55:58;63328.88;;;9.93;55.41
7832;BME280;3961;42.058;25.586;2023-02-03T09:58:28;63332.13;;;9.93;56.64
7832;BME280;3961;42.058;25.586;2023-02-03T10:00:59;63365.38;;;10.20;56.18
7832;BME280;3961;42.058;25.586;2023-02-03T10:17:33;63406.59;;;10.59;55.16
7832;BME280;3961;42.058;25.586;2023-02-03T10:20:12;63426.34;;;10.71;50.44
7832;BME280;3961;42.058;25.586;2023-02-03T10:22:52;63385.47;;;10.42;51.26
7832;BME280;3961;42.058;25.586;2023-02-03T10:25:24;63441.03;;;10.87;51.22
7832;BME280;3961;42.058;25.586;2023-02-03T10:27:59;63368.50;;;10.25;51.40
7832;BME280;3961;42.058;25.586;2023-02-03T10:30:27;63353.81;;;10.10;50.27
7832;BME280;3961;42.058;25.586;2023-02-03T10:33:09;63266.34;;;9.35;51.59
7832;BME280;3961;42.058;25.586;2023-02-03T10:38:15;63284.81;;;9.52;50.78
7832;BME280;3961;42.058;25.586;2023-02-03T10:40:46;63272.91;;;9.43;52.44
7832;BME280;3961;42.058;25.586;2023-02-03T10:43:12;63266.34;;;9.35;52.44
7832;BME280;3961;42.058;25.586;2023-02-03T10:45:57;63256.88;;;9.25;51.98
7832;BME280;3961;42.058;25.586;2023-02-03T10:48:23;63283.06;;;9.50;52.06
7832;BME280;3961;42.058;25.586;2023-02-03T10:50:49;63275.00;;;9.43;51.36
7832;BME280;3961;42.058;25.586;2023-02-03T10:53:23;63246.75;;;9.18;51.46
7832;BME280;3961;42.058;25.586;2023-02-03T10:55:58;63243.97;;;9.11;52.49
7832;BME280;3961;42.058;25.586;2023-02-03T10:58:27;63261.75;;;9.31;52.29
7832;BME280;3961;42.058;25.586;2023-02-03T11:00:56;63300.16;;;9.63;52.73
7832;BME280;3961;42.058;25.586;2023-02-03T11:03:24;63329.81;;;9.91;50.39
7832;BME280;3961;42.058;25.586;2023-02-03T11:06:08;63368.50;;;10.25;50.87
7832;BME280;3961;42.058;25.586;2023-02-03T11:08:37;63356.94;;;10.15;50.42
7832;BME280;3961;42.058;25.586;2023-02-03T11:11:06;63388.13;;;10.42;50.63
7832;BME280;3961;42.058;25.586;2023-02-03T11:13:32;63419.09;;;10.67;49.76
7832;BME280;3961;42.058;25.586;2023-02-03T11:16:03;63394.72;;;10.51;50.64
7832;BME280;3961;42.058;25.586;2023-02-03T11:18:32;63359.50;;;10.20;49.56
7832;BME280;3961;42.058;25.586;2023-02-03T11:21:08;63298.31;;;9.66;50.84
7832;BME280;3961;42.058;25.586;2023-02-03T11:23:34;63319.75;;;9.80;49.89
7832;BME280;3961;42.058;25.586;2023-02-03T11:26:09;63337.41;;;9.93;49.25
7832;BME280;3961;42.058;25.586;2023-02-03T11:28:40;63328.19;;;9.85;49.24
7832;BME280;3961;42.058;25.586;2023-02-03T11:31:16;63370.56;;;10.25;49.55
7832;BME280;3961;42.058;25.586;2023-02-03T11:33:47;63390.78;;;10.42;48.58
7832;BME280;3961;42.058;25.586;2023-02-03T11:36:12;63384.44;;;10.37;48.46
7832;BME280;3961;42.058;25.586;2023-02-03T11:38:38;63323.22;;;9.83;47.42
7832;BME280;3961;42.058;25.586;2023-02-03T11:41:14;63366.19;;;10.23;48.76
7832;BME280;3961;42.058;25.586;2023-02-03T11:43:40;63345.75;;;10.03;47.74
7832;BME280;3961;42.058;25.586;2023-02-03T11:46:06;63392.75;;;10.47;47.80
7832;BME280;3961;42.058;25.586;2023-02-03T11:48:48;63415.28;;;10.66;46.24
7832;BME280;3961;42.058;25.586;2023-02-03T11:57:16;63447.50;;;10.88;46.20
7832;BME280;3961;42.058;25.586;2023-02-03T12:04:57;63396.56;;;10.48;45.89
7832;BME280;3961;42.058;25.586;2023-02-03T12:07:54;63362.47;;;10.18;47.88
7832;BME280;3961;42.058;25.586;2023-02-03T12:10:46;63339.38;;;9.97;48.32
7832;BME280;3961;42.058;25.586;2023-02-03T12:21:45;63298.66;;;9.64;50.06
7832;BME280;3961;42.058;25.586;2023-02-03T12:27:19;63341.69;;;9.99;49.57
7832;BME280;3961;42.058;25.586;2023-02-03T12:30:14;63328.06;;;9.90;47.66
7832;BME280;3961;42.058;25.586;2023-02-03T12:32:46;63301.78;;;9.69;46.60
7832;BME280;3961;42.058;25.586;2023-02-03T12:35:22;63310.53;;;9.72;46.36
7832;BME280;3961;42.058;25.586;2023-02-03T12:37:59;63322.31;;;9.85;48.93
7832;BME280;3961;42.058;25.586;2023-02-03T12:40:35;63318.84;;;9.82;47.01
7832;BME280;3961;42.058;25.586;2023-02-03T12:44:07;63340.53;;;9.98;47.15
7832;BME280;3961;42.058;25.586;2023-02-03T12:52:00;63309.97;;;9.71;52.20
7832;BME280;3961;42.058;25.586;2023-02-03T12:54:36;63366.78;;;10.24;49.81
7832;BME280;3961;42.058;25.586;2023-02-03T12:57:24;63361.31;;;10.17;49.09
7832;BME280;3961;42.058;25.586;2023-02-03T13:05:31;63349.66;;;10.11;48.99
7832;BME280;3961;42.058;25.586;2023-02-03T13:13:41;63394.56;;;10.43;43.09
7832;BME280;3961;42.058;25.586;2023-02-03T13:16:11;63400.00;;;10.51;43.70
7832;BME280;3961;42.058;25.586;2023-02-03T13:18:41;63374.28;;;10.30;44.06
7832;BME280;3961;42.058;25.586;2023-02-03T13:21:11;63395.16;;;10.44;43.49
7832;BME280;3961;42.058;25.586;2023-02-03T13:23:41;63415.97;;;10.62;43.82
7832;BME280;3961;42.058;25.586;2023-02-03T13:31:45;63452.00;;;10.96;41.32
7832;BME280;3961;42.058;25.586;2023-02-03T13:34:27;63447.63;;;10.95;39.75
7832;BME280;3961;42.058;25.586;2023-02-03T13:42:24;63462.41;;;11.05;40.59
7832;BME280;3961;42.058;25.586;2023-02-03T13:44:55;63454.66;;;10.96;40.12
7832;BME280;3961;42.058;25.586;2023-02-03T13:47:26;63429.69;;;10.79;40.52
7832;BME280;3961;42.058;25.586;2023-02-03T13:49:58;63436.41;;;10.83;40.74
7832;BME280;3961;42.058;25.586;2023-02-03T13:55:35;63396.78;;;10.50;42.29
7832;BME280;3961;42.058;25.586;2023-02-03T13:58:03;63421.97;;;10.70;42.41
7832;BME280;3961;42.058;25.586;2023-02-03T14:05:52;63426.81;;;10.76;40.96
7832;BME280;3961;42.058;25.586;2023-02-03T14:14:39;63430.84;;;10.80;39.66
7832;BME280;3961;42.058;25.586;2023-02-03T14:16:47;63417.25;;;10.70;40.65
7832;BME280;3961;42.058;25.586;2023-02-03T14:21:59;63350.34;;;10.07;42.63
7832;BME280;3961;42.058;25.586;2023-02-03T14:24:31;63316.88;;;9.77;43.39
7832;BME280;3961;42.058;25.586;2023-02-03T14:26:58;63343.31;;;10.05;42.94
7832;BME280;3961;42.058;25.586;2023-02-03T14:29:29;63340.53;;;9.98;42.66
7832;BME280;3961;42.058;25.586;2023-02-03T14:32:04;63345.97;;;10.05;42.87
7832;BME280;3961;42.058;25.586;2023-02-03T14:34:44;63361.81;;;10.22;43.09
7832;BME280;3961;42.058;25.586;2023-02-03T14:45:15;63395.16;;;10.44;42.97
7832;BME280;3961;42.058;25.586;2023-02-03T14:48:21;63382.59;;;10.40;43.53
7832;BME280;3961;42.058;25.586;2023-02-03T14:57:13;63321.72;;;9.84;45.35
7832;BME280;3961;42.058;25.586;2023-02-03T14:59:56;63298.31;;;9.66;46.15
7832;BME280;3961;42.058;25.586;2023-02-03T15:02:26;63323.22;;;9.83;45.87
7832;BME280;3961;42.058;25.586;2023-02-03T15:07:47;63275.22;;;9.46;46.64
7832;BME280;3961;42.058;25.586;2023-02-03T15:10:19;63266.69;;;9.33;47.75
7832;BME280;3961;42.058;25.586;2023-02-03T15:12:50;63277.06;;;9.42;47.99
7832;BME280;3961;42.058;25.586;2023-02-03T15:15:27;63263.22;;;9.30;47.82
7832;BME280;3961;42.058;25.586;2023-02-03T15:17:59;63268.44;;;9.35;48.12
7832;BME280;3961;42.058;25.586;2023-02-03T15:20:44;63255.97;;;9.26;48.50
7832;BME280;3961;42.058;25.586;2023-02-03T15:25:43;63268.09;;;9.37;48.65
7832;BME280;3961;42.058;25.586;2023-02-03T15:28:17;63253.09;;;9.24;48.64
7832;BME280;3961;42.058;25.586;2023-02-03T15:30:43;63252.28;;;9.21;48.96
7832;BME280;3961;42.058;25.586;2023-02-03T15:33:16;63228.53;;;9.04;48.69
7832;BME280;3961;42.058;25.586;2023-02-03T15:35:48;63235.56;;;9.06;49.58
7832;BME280;3961;42.058;25.586;2023-02-03T15:38:24;63242.69;;;9.15;50.45
7832;BME280;3961;42.058;25.586;2023-02-03T15:40:55;63248.47;;;9.20;50.71